sensor_id;sensor_type;location;lat;lon;timestamp;P1;durP1;ratioP1;P2;durP2;ratioP2
37645;SDS011;23489;49.600;6.138;2022-12-18T00:01:56;29.30;;;13.93;;
37645;SDS011;23489;49.600;6.138;2022-12-18T00:04:24;29.73;;;14.27;;
37645;SDS011;23489;49.600;6.138;2022-12-18T00:06:51;25.77;;;12.97;;
37645;SDS011;23489;49.600;6.138;2022-12-18T00:09:17;27.80;;;13.43;;
37645;SDS011;23489;49.600;6.138;2022-12-18T00:11:42;28.97;;;12.73;;
37645;SDS011;23489;49.600;6.138;2022-12-18T00:14:08;30.83;;;13.43;;
37645;SDS011;23489;49.600;6.138;2022-12-18T00:16:36;28.60;;;13.47;;
37645;SDS011;23489;49.600;6.138;2022-12-18T00:19:02;33.07;;;15.43;;
37645;SDS011;23489;49.600;6.138;2022-12-18T00:21:29;30.37;;;13.70;;
37645;SDS011;23489;49.600;6.138;2022-12-18T00:23:56;29.33;;;13.90;;
37645;SDS011;23489;49.600;6.138;2022-12-18T00:26:23;27.33;;;14.07;;
37645;SDS011;23489;49.600;6.138;2022-12-18T00:28:57;26.10;;;13.30;;
37645;SDS011;23489;49.600;6.138;2022-12-18T00:31:29;39.97;;;14.43;;
37645;SDS011;23489;49.600;6.138;2022-12-18T00:33:55;28.10;;;13.43;;
37645;SDS011;23489;49.600;6.138;2022-12-18T00:36:23;32.37;;;13.90;;
37645;SDS011;23489;49.600;6.138;2022-12-18T00:38:53;31.50;;;14.43;;
37645;SDS011;23489;49.600;6.138;2022-12-18T00:41:20;29.30;;;13.00;;
37645;SDS011;23489;49.600;6.138;2022-12-18T00:44:05;26.93;;;12.50;;
37645;SDS011;23489;49.600;6.138;2022-12-18T00:46:32;24.67;;;13.60;;
37645;SDS011;23489;49.600;6.138;2022-12-18T00:48:58;26.97;;;12.53;;
37645;SDS011;23489;49.600;6.138;2022-12-18T00:51:24;25.13;;;11.93;;
37645;SDS011;23489;49.600;6.138;2022-12-18T00:53:50;28.93;;;12.83;;
37645;SDS011;23489;49.600;6.138;2022-12-18T00:56:16;29.77;;;12.10;;
37645;SDS011;23489;49.600;6.138;2022-12-18T00:58:41;26.80;;;12.10;;
37645;SDS011;23489;49.600;6.138;2022-12-18T01:01:07;26.07;;;11.87;;
37645;SDS011;23489;49.600;6.138;2022-12-18T01:03:33;27.27;;;12.13;;
37645;SDS011;23489;49.600;6.138;2022-12-18T01:05:59;27.13;;;11.90;;
37645;SDS011;23489;49.600;6.138;2022-12-18T01:08:30;30.83;;;14.17;;
37645;SDS011;23489;49.600;6.138;2022-12-18T01:10:55;33.43;;;12.07;;
37645;SDS011;23489;49.600;6.138;2022-12-18T01:13:21;23.07;;;11.80;;
37645;SDS011;23489;49.600;6.138;2022-12-18T01:15:49;29.60;;;12.63;;
37645;SDS011;23489;49.600;6.138;2022-12-18T01:18:15;23.40;;;12.57;;
37645;SDS011;23489;49.600;6.138;2022-12-18T01:20:41;25.57;;;11.57;;
37645;SDS011;23489;49.600;6.138;2022-12-18T01:23:07;28.57;;;12.83;;
37645;SDS011;23489;49.600;6.138;2022-12-18T01:25:33;24.13;;;11.40;;
37645;SDS011;23489;49.600;6.138;2022-12-18T01:28:01;32.60;;;13.10;;
37645;SDS011;23489;49.600;6.138;2022-12-18T01:30:27;26.83;;;13.70;;
37645;SDS011;23489;49.600;6.138;2022-12-18T01:32:53;25.87;;;13.00;;
37645;SDS011;23489;49.600;6.138;2022-12-18T01:35:19;26.67;;;12.20;;
37645;SDS011;23489;49.600;6.138;2022-12-18T01:37:45;27.77;;;12.90;;
37645;SDS011;23489;49.600;6.138;2022-12-18T01:40:10;23.43;;;11.37;;
37645;SDS011;23489;49.600;6.138;2022-12-18T01:42:38;28.23;;;13.30;;
37645;SDS011;23489;49.600;6.138;2022-12-18T01:50:17;31.57;;;14.67;;
37645;SDS011;23489;49.600;6.138;2022-12-18T01:52:52;31.63;;;13.70;;
37645;SDS011;23489;49.600;6.138;2022-12-18T01:55:23;31.67;;;13.57;;
37645;SDS011;23489;49.600;6.138;2022-12-18T01:57:52;25.57;;;13.33;;
37645;SDS011;23489;49.600;6.138;2022-12-18T02:00:20;31.60;;;12.53;;
37645;SDS011;23489;49.600;6.138;2022-12-18T02:02:47;30.20;;;13.23;;
37645;SDS011;23489;49.600;6.138;2022-12-18T02:05:15;27.20;;;12.93;;
37645;SDS011;23489;49.600;6.138;2022-12-18T02:07:48;27.40;;;12.07;;
37645;SDS011;23489;49.600;6.138;2022-12-18T02:10:35;27.87;;;13.37;;
37645;SDS011;23489;49.600;6.138;2022-12-18T02:22:27;24.70;;;11.30;;
37645;SDS011;23489;49.600;6.138;2022-12-18T02:28:10;24.77;;;11.13;;
37645;SDS011;23489;49.600;6.138;2022-12-18T02:30:38;31.40;;;12.87;;
37645;SDS011;23489;49.600;6.138;2022-12-18T02:33:06;23.50;;;11.27;;
37645;SDS011;23489;49.600;6.138;2022-12-18T02:35:33;25.93;;;11.90;;
37645;SDS011;23489;49.600;6.138;2022-12-18T02:38:01;25.93;;;10.87;;
37645;SDS011;23489;49.600;6.138;2022-12-18T02:40:32;25.10;;;12.00;;
37645;SDS011;23489;49.600;6.138;2022-12-18T02:43:06;27.33;;;12.23;;
37645;SDS011;23489;49.600;6.138;2022-12-18T02:45:45;27.47;;;14.40;;
37645;SDS011;23489;49.600;6.138;2022-12-18T02:48:13;27.63;;;12.73;;
37645;SDS011;23489;49.600;6.138;2022-12-18T02:50:45;27.73;;;10.90;;
37645;SDS011;23489;49.600;6.138;2022-12-18T02:53:30;22.70;;;10.87;;
37645;SDS011;23489;49.600;6.138;2022-12-18T02:56:09;23.97;;;12.47;;
37645;SDS011;23489;49.600;6.138;2022-12-18T03:01:35;21.13;;;10.53;;
37645;SDS011;23489;49.600;6.138;2022-12-18T03:04:14;25.30;;;11.67;;
37645;SDS011;23489;49.600;6.138;2022-12-18T03:06:47;26.10;;;12.30;;
37645;SDS011;23489;49.600;6.138;2022-12-18T03:09:18;24.10;;;11.77;;
37645;SDS011;23489;49.600;6.138;2022-12-18T03:12:02;28.03;;;12.57;;
37645;SDS011;23489;49.600;6.138;2022-12-18T03:14:48;31.43;;;12.97;;
37645;SDS011;23489;49.600;6.138;2022-12-18T03:17:30;24.97;;;11.40;;
37645;SDS011;23489;49.600;6.138;2022-12-18T03:19:58;22.53;;;10.97;;
37645;SDS011;23489;49.600;6.138;2022-12-18T03:22:32;21.07;;;10.93;;
37645;SDS011;23489;49.600;6.138;2022-12-18T03:25:00;24.97;;;12.40;;
37645;SDS011;23489;49.600;6.138;2022-12-18T03:27:29;29.37;;;11.70;;
37645;SDS011;23489;49.600;6.138;2022-12-18T03:30:06;23.53;;;12.03;;
37645;SDS011;23489;49.600;6.138;2022-12-18T03:32:53;28.03;;;12.43;;
37645;SDS011;23489;49.600;6.138;2022-12-18T03:35:29;26.50;;;11.00;;
37645;SDS011;23489;49.600;6.138;2022-12-18T03:37:59;26.83;;;11.63;;
37645;SDS011;23489;49.600;6.138;2022-12-18T03:41:00;25.13;;;11.40;;
37645;SDS011;23489;49.600;6.138;2022-12-18T03:44:11;23.50;;;11.93;;
37645;SDS011;23489;49.600;6.138;2022-12-18T03:46:54;25.97;;;12.03;;
37645;SDS011;23489;49.600;6.138;2022-12-18T03:49:33;21.80;;;11.00;;
37645;SDS011;23489;49.600;6.138;2022-12-18T03:52:07;25.10;;;10.63;;
37645;SDS011;23489;49.600;6.138;2022-12-18T03:54:38;20.83;;;10.70;;
37645;SDS011;23489;49.600;6.138;2022-12-18T03:57:13;26.73;;;11.83;;
37645;SDS011;23489;49.600;6.138;2022-12-18T03:59:49;22.37;;;10.17;;
37645;SDS011;23489;49.600;6.138;2022-12-18T04:02:20;21.43;;;10.80;;
37645;SDS011;23489;49.600;6.138;2022-12-18T04:04:49;24.80;;;12.00;;
37645;SDS011;23489;49.600;6.138;2022-12-18T04:07:22;22.30;;;10.83;;
37645;SDS011;23489;49.600;6.138;2022-12-18T04:09:49;25.17;;;10.83;;
37645;SDS011;23489;49.600;6.138;2022-12-18T04:12:17;20.50;;;10.77;;
37645;SDS011;23489;49.600;6.138;2022-12-18T04:14:44;23.47;;;10.70;;
37645;SDS011;23489;49.600;6.138;2022-12-18T04:17:10;22.17;;;10.63;;
37645;SDS011;23489;49.600;6.138;2022-12-18T04:19:36;17.63;;;9.30;;
37645;SDS011;23489;49.600;6.138;2022-12-18T04:22:02;21.40;;;9.93;;
37645;SDS011;23489;49.600;6.138;2022-12-18T04:24:33;18.83;;;9.80;;
37645;SDS011;23489;49.600;6.138;2022-12-18T04:27:09;17.10;;;10.10;;
37645;SDS011;23489;49.600;6.138;2022-12-18T04:29:41;21.10;;;10.10;;
37645;SDS011;23489;49.600;6.138;2022-12-18T04:32:07;19.47;;;10.60;;
37645;SDS011;23489;49.600;6.138;2022-12-18T04:34:33;19.00;;;10.10;;
37645;SDS011;23489;49.600;6.138;2022-12-18T04:36:59;22.47;;;10.77;;
37645;SDS011;23489;49.600;6.138;2022-12-18T04:39:25;20.70;;;11.33;;
37645;SDS011;23489;49.600;6.138;2022-12-18T04:41:53;18.23;;;10.30;;
37645;SDS011;23489;49.600;6.138;2022-12-18T04:44:19;24.10;;;10.33;;
37645;SDS011;23489;49.600;6.138;2022-12-18T04:46:45;19.43;;;10.03;;
37645;SDS011;23489;49.600;6.138;2022-12-18T04:49:10;19.50;;;9.03;;
37645;SDS011;23489;49.600;6.138;2022-12-18T04:51:36;20.03;;;9.17;;
37645;SDS011;23489;49.600;6.138;2022-12-18T04:54:02;13.50;;;8.37;;
37645;SDS011;23489;49.600;6.138;2022-12-18T04:56:28;18.60;;;8.73;;
37645;SDS011;23489;49.600;6.138;2022-12-18T04:58:55;17.17;;;9.10;;
37645;SDS011;23489;49.600;6.138;2022-12-18T05:01:21;18.33;;;7.93;;
37645;SDS011;23489;49.600;6.138;2022-12-18T05:03:47;15.73;;;9.00;;
37645;SDS011;23489;49.600;6.138;2022-12-18T05:06:12;18.60;;;9.20;;
37645;SDS011;23489;49.600;6.138;2022-12-18T05:08:38;14.20;;;7.73;;
37645;SDS011;23489;49.600;6.138;2022-12-18T05:11:05;14.53;;;8.47;;
37645;SDS011;23489;49.600;6.138;2022-12-18T05:13:32;20.73;;;9.07;;
37645;SDS011;23489;49.600;6.138;2022-12-18T05:15:59;15.57;;;7.87;;
37645;SDS011;23489;49.600;6.138;2022-12-18T05:18:25;14.43;;;8.17;;
37645;SDS011;23489;49.600;6.138;2022-12-18T05:20:51;14.37;;;8.10;;
37645;SDS011;23489;49.600;6.138;2022-12-18T05:23:19;17.17;;;8.10;;
37645;SDS011;23489;49.600;6.138;2022-12-18T05:25:53;17.10;;;8.53;;
37645;SDS011;23489;49.600;6.138;2022-12-18T05:28:20;18.47;;;9.23;;
37645;SDS011;23489;49.600;6.138;2022-12-18T05:30:49;18.50;;;9.17;;
37645;SDS011;23489;49.600;6.138;2022-12-18T05:33:16;17.63;;;8.30;;
37645;SDS011;23489;49.600;6.138;2022-12-18T05:35:43;18.60;;;9.23;;
37645;SDS011;23489;49.600;6.138;2022-12-18T05:38:09;15.80;;;9.00;;
37645;SDS011;23489;49.600;6.138;2022-12-18T05:40:35;18.20;;;8.90;;
37645;SDS011;23489;49.600;6.138;2022-12-18T05:43:01;18.80;;;10.13;;
37645;SDS011;23489;49.600;6.138;2022-12-18T05:45:27;16.20;;;7.93;;
37645;SDS011;23489;49.600;6.138;2022-12-18T05:47:53;15.93;;;9.40;;
37645;SDS011;23489;49.600;6.138;2022-12-18T05:50:18;25.73;;;10.77;;
37645;SDS011;23489;49.600;6.138;2022-12-18T05:52:44;16.53;;;10.27;;
37645;SDS011;23489;49.600;6.138;2022-12-18T05:55:09;17.33;;;9.97;;
37645;SDS011;23489;49.600;6.138;2022-12-18T05:57:35;18.40;;;8.87;;
37645;SDS011;23489;49.600;6.138;2022-12-18T06:00:01;18.13;;;8.10;;
37645;SDS011;23489;49.600;6.138;2022-12-18T06:02:37;20.43;;;9.10;;
37645;SDS011;23489;49.600;6.138;2022-12-18T06:05:03;18.77;;;9.60;;
37645;SDS011;23489;49.600;6.138;2022-12-18T06:07:28;20.00;;;9.53;;
37645;SDS011;23489;49.600;6.138;2022-12-18T06:09:54;18.33;;;8.20;;
37645;SDS011;23489;49.600;6.138;2022-12-18T06:12:20;12.03;;;7.93;;
37645;SDS011;23489;49.600;6.138;2022-12-18T06:14:46;17.73;;;8.93;;
37645;SDS011;23489;49.600;6.138;2022-12-18T06:17:11;15.50;;;8.33;;
37645;SDS011;23489;49.600;6.138;2022-12-18T06:19:37;18.57;;;8.80;;
37645;SDS011;23489;49.600;6.138;2022-12-18T06:22:03;17.60;;;9.70;;
37645;SDS011;23489;49.600;6.138;2022-12-18T06:24:29;16.87;;;8.43;;
37645;SDS011;23489;49.600;6.138;2022-12-18T06:26:55;19.53;;;9.23;;
37645;SDS011;23489;49.600;6.138;2022-12-18T06:29:21;16.20;;;8.17;;
37645;SDS011;23489;49.600;6.138;2022-12-18T06:31:46;16.00;;;8.30;;
37645;SDS011;23489;49.600;6.138;2022-12-18T06:34:12;20.13;;;9.17;;
37645;SDS011;23489;49.600;6.138;2022-12-18T06:36:37;16.57;;;8.10;;
37645;SDS011;23489;49.600;6.138;2022-12-18T06:39:03;14.97;;;7.93;;
37645;SDS011;23489;49.600;6.138;2022-12-18T06:41:29;17.13;;;8.67;;
37645;SDS011;23489;49.600;6.138;2022-12-18T06:43:55;14.50;;;8.30;;
37645;SDS011;23489;49.600;6.138;2022-12-18T06:46:20;17.83;;;8.20;;
37645;SDS011;23489;49.600;6.138;2022-12-18T06:48:47;19.47;;;7.73;;
37645;SDS011;23489;49.600;6.138;2022-12-18T06:51:15;19.47;;;9.20;;
37645;SDS011;23489;49.600;6.138;2022-12-18T06:53:45;17.70;;;8.50;;
37645;SDS011;23489;49.600;6.138;2022-12-18T06:56:11;15.70;;;9.17;;
37645;SDS011;23489;49.600;6.138;2022-12-18T06:58:37;24.60;;;10.17;;
37645;SDS011;23489;49.600;6.138;2022-12-18T07:01:06;19.73;;;9.53;;
37645;SDS011;23489;49.600;6.138;2022-12-18T07:03:33;18.60;;;8.67;;
37645;SDS011;23489;49.600;6.138;2022-12-18T07:05:59;21.90;;;10.20;;
37645;SDS011;23489;49.600;6.138;2022-12-18T07:08:24;24.50;;;10.53;;
37645;SDS011;23489;49.600;6.138;2022-12-18T07:10:50;22.90;;;11.53;;
37645;SDS011;23489;49.600;6.138;2022-12-18T07:13:16;20.47;;;10.90;;
37645;SDS011;23489;49.600;6.138;2022-12-18T07:15:42;23.00;;;12.07;;
37645;SDS011;23489;49.600;6.138;2022-12-18T07:18:09;25.07;;;11.60;;
37645;SDS011;23489;49.600;6.138;2022-12-18T07:20:35;24.57;;;12.37;;
37645;SDS011;23489;49.600;6.138;2022-12-18T07:23:03;25.03;;;10.90;;
37645;SDS011;23489;49.600;6.138;2022-12-18T07:25:30;22.63;;;10.77;;
37645;SDS011;23489;49.600;6.138;2022-12-18T07:28:02;27.67;;;13.30;;
37645;SDS011;23489;49.600;6.138;2022-12-18T07:30:28;25.30;;;12.10;;
37645;SDS011;23489;49.600;6.138;2022-12-18T07:32:53;25.87;;;12.53;;
37645;SDS011;23489;49.600;6.138;2022-12-18T07:35:19;25.93;;;11.77;;
37645;SDS011;23489;49.600;6.138;2022-12-18T07:37:45;29.67;;;13.30;;
37645;SDS011;23489;49.600;6.138;2022-12-18T07:40:10;22.33;;;12.33;;
37645;SDS011;23489;49.600;6.138;2022-12-18T07:42:36;27.90;;;13.23;;
37645;SDS011;23489;49.600;6.138;2022-12-18T07:45:02;28.33;;;14.40;;
37645;SDS011;23489;49.600;6.138;2022-12-18T07:47:28;26.47;;;12.93;;
37645;SDS011;23489;49.600;6.138;2022-12-18T07:49:56;33.13;;;15.07;;
37645;SDS011;23489;49.600;6.138;2022-12-18T07:52:21;31.33;;;14.77;;
37645;SDS011;23489;49.600;6.138;2022-12-18T07:54:47;30.87;;;14.50;;
37645;SDS011;23489;49.600;6.138;2022-12-18T07:57:16;38.97;;;14.17;;
37645;SDS011;23489;49.600;6.138;2022-12-18T07:59:42;38.07;;;15.43;;
37645;SDS011;23489;49.600;6.138;2022-12-18T08:02:07;30.60;;;14.33;;
37645;SDS011;23489;49.600;6.138;2022-12-18T08:04:34;27.20;;;12.57;;
37645;SDS011;23489;49.600;6.138;2022-12-18T08:07:00;29.07;;;14.40;;
37645;SDS011;23489;49.600;6.138;2022-12-18T08:09:25;30.43;;;15.07;;
37645;SDS011;23489;49.600;6.138;2022-12-18T08:11:51;30.10;;;14.30;;
37645;SDS011;23489;49.600;6.138;2022-12-18T08:14:17;27.70;;;14.13;;
37645;SDS011;23489;49.600;6.138;2022-12-18T08:16:42;28.33;;;14.93;;
37645;SDS011;23489;49.600;6.138;2022-12-18T08:19:08;30.73;;;14.10;;
37645;SDS011;23489;49.600;6.138;2022-12-18T08:21:34;30.47;;;15.33;;
37645;SDS011;23489;49.600;6.138;2022-12-18T08:24:00;32.67;;;14.77;;
37645;SDS011;23489;49.600;6.138;2022-12-18T08:26:27;30.10;;;14.07;;
37645;SDS011;23489;49.600;6.138;2022-12-18T08:28:54;27.50;;;14.73;;
37645;SDS011;23489;49.600;6.138;2022-12-18T08:31:21;33.43;;;15.53;;
37645;SDS011;23489;49.600;6.138;2022-12-18T08:33:48;34.13;;;16.57;;
37645;SDS011;23489;49.600;6.138;2022-12-18T08:36:15;27.83;;;15.17;;
37645;SDS011;23489;49.600;6.138;2022-12-18T08:38:41;36.77;;;16.30;;
37645;SDS011;23489;49.600;6.138;2022-12-18T08:41:07;32.13;;;15.90;;
37645;SDS011;23489;49.600;6.138;2022-12-18T08:43:35;27.47;;;13.93;;
37645;SDS011;23489;49.600;6.138;2022-12-18T08:46:19;32.83;;;15.40;;
37645;SDS011;23489;49.600;6.138;2022-12-18T08:48:46;33.60;;;15.43;;
37645;SDS011;23489;49.600;6.138;2022-12-18T08:51:12;31.07;;;14.97;;
37645;SDS011;23489;49.600;6.138;2022-12-18T08:53:40;32.63;;;15.40;;
37645;SDS011;23489;49.600;6.138;2022-12-18T08:56:06;32.40;;;14.93;;
37645;SDS011;23489;49.600;6.138;2022-12-18T08:58:32;31.83;;;16.03;;
37645;SDS011;23489;49.600;6.138;2022-12-18T09:00:59;34.80;;;16.97;;
37645;SDS011;23489;49.600;6.138;2022-12-18T09:03:26;32.13;;;16.37;;
37645;SDS011;23489;49.600;6.138;2022-12-18T09:05:52;33.27;;;16.10;;
37645;SDS011;23489;49.600;6.138;2022-12-18T09:08:17;29.00;;;14.10;;
37645;SDS011;23489;49.600;6.138;2022-12-18T09:10:44;31.77;;;16.20;;
37645;SDS011;23489;49.600;6.138;2022-12-18T09:13:10;31.73;;;14.80;;
37645;SDS011;23489;49.600;6.138;2022-12-18T09:15:50;33.20;;;14.73;;
37645;SDS011;23489;49.600;6.138;2022-12-18T09:18:18;35.67;;;16.87;;
37645;SDS011;23489;49.600;6.138;2022-12-18T09:20:45;36.53;;;17.13;;
37645;SDS011;23489;49.600;6.138;2022-12-18T09:23:11;35.00;;;16.57;;
37645;SDS011;23489;49.600;6.138;2022-12-18T09:25:37;34.17;;;15.73;;
37645;SDS011;23489;49.600;6.138;2022-12-18T09:28:05;31.93;;;16.10;;
37645;SDS011;23489;49.600;6.138;2022-12-18T09:30:36;29.43;;;15.40;;
37645;SDS011;23489;49.600;6.138;2022-12-18T09:33:03;27.80;;;14.40;;
37645;SDS011;23489;49.600;6.138;2022-12-18T09:35:28;32.20;;;14.90;;
37645;SDS011;23489;49.600;6.138;2022-12-18T09:37:54;37.80;;;15.70;;
37645;SDS011;23489;49.600;6.138;2022-12-18T09:40:21;30.67;;;15.70;;
37645;SDS011;23489;49.600;6.138;2022-12-18T09:42:54;36.57;;;15.47;;
37645;SDS011;23489;49.600;6.138;2022-12-18T09:45:23;34.40;;;15.17;;
37645;SDS011;23489;49.600;6.138;2022-12-18T09:47:49;38.43;;;17.00;;
37645;SDS011;23489;49.600;6.138;2022-12-18T09:50:26;28.67;;;15.33;;
37645;SDS011;23489;49.600;6.138;2022-12-18T09:52:57;34.20;;;15.07;;
37645;SDS011;23489;49.600;6.138;2022-12-18T09:55:34;35.47;;;15.10;;
37645;SDS011;23489;49.600;6.138;2022-12-18T10:00:42;32.60;;;15.83;;
37645;SDS011;23489;49.600;6.138;2022-12-18T10:03:11;32.67;;;15.23;;
37645;SDS011;23489;49.600;6.138;2022-12-18T10:16:53;29.10;;;15.40;;
37645;SDS011;23489;49.600;6.138;2022-12-18T10:19:41;31.27;;;16.10;;
37645;SDS011;23489;49.600;6.138;2022-12-18T10:28:10;32.10;;;16.00;;
37645;SDS011;23489;49.600;6.138;2022-12-18T10:30:39;32.50;;;14.90;;
37645;SDS011;23489;49.600;6.138;2022-12-18T10:33:05;37.90;;;15.97;;
37645;SDS011;23489;49.600;6.138;2022-12-18T10:35:35;31.17;;;15.43;;
37645;SDS011;23489;49.600;6.138;2022-12-18T10:40:50;31.80;;;14.23;;
37645;SDS011;23489;49.600;6.138;2022-12-18T10:43:19;29.60;;;14.27;;
37645;SDS011;23489;49.600;6.138;2022-12-18T10:45:59;32.97;;;16.10;;
37645;SDS011;23489;49.600;6.138;2022-12-18T10:48:27;35.07;;;16.10;;
37645;SDS011;23489;49.600;6.138;2022-12-18T10:50:54;33.97;;;16.97;;
37645;SDS011;23489;49.600;6.138;2022-12-18T10:53:22;31.40;;;16.43;;
37645;SDS011;23489;49.600;6.138;2022-12-18T10:55:50;25.10;;;14.30;;
37645;SDS011;23489;49.600;6.138;2022-12-18T11:03:42;28.03;;;15.07;;
37645;SDS011;23489;49.600;6.138;2022-12-18T11:06:11;35.50;;;16.23;;
37645;SDS011;23489;49.600;6.138;2022-12-18T11:08:43;33.33;;;16.27;;
37645;SDS011;23489;49.600;6.138;2022-12-18T11:11:22;35.47;;;16.13;;
37645;SDS011;23489;49.600;6.138;2022-12-18T11:14:02;36.60;;;17.83;;
37645;SDS011;23489;49.600;6.138;2022-12-18T11:16:44;37.43;;;16.97;;
37645;SDS011;23489;49.600;6.138;2022-12-18T11:22:01;36.03;;;16.67;;
37645;SDS011;23489;49.600;6.138;2022-12-18T11:24:42;43.30;;;19.10;;
37645;SDS011;23489;49.600;6.138;2022-12-18T11:27:17;33.73;;;16.93;;
37645;SDS011;23489;49.600;6.138;2022-12-18T11:29:43;36.03;;;17.40;;
37645;SDS011;23489;49.600;6.138;2022-12-18T11:35:02;40.20;;;19.33;;
37645;SDS011;23489;49.600;6.138;2022-12-18T11:37:41;36.20;;;17.83;;
37645;SDS011;23489;49.600;6.138;2022-12-18T11:40:15;37.07;;;18.23;;
37645;SDS011;23489;49.600;6.138;2022-12-18T11:42:52;40.07;;;18.73;;
37645;SDS011;23489;49.600;6.138;2022-12-18T11:45:27;32.27;;;16.20;;
37645;SDS011;23489;49.600;6.138;2022-12-18T11:50:32;39.40;;;17.17;;
37645;SDS011;23489;49.600;6.138;2022-12-18T11:53:11;37.90;;;16.87;;
37645;SDS011;23489;49.600;6.138;2022-12-18T11:55:51;37.57;;;18.73;;
37645;SDS011;23489;49.600;6.138;2022-12-18T11:58:44;38.27;;;16.80;;
37645;SDS011;23489;49.600;6.138;2022-12-18T12:09:37;35.63;;;17.20;;
37645;SDS011;23489;49.600;6.138;2022-12-18T12:15:23;31.70;;;15.83;;
37645;SDS011;23489;49.600;6.138;2022-12-18T12:18:01;33.33;;;16.53;;
37645;SDS011;23489;49.600;6.138;2022-12-18T12:26:11;34.17;;;17.43;;
37645;SDS011;23489;49.600;6.138;2022-12-18T12:28:59;37.63;;;17.13;;
37645;SDS011;23489;49.600;6.138;2022-12-18T12:31:52;39.00;;;17.23;;
37645;SDS011;23489;49.600;6.138;2022-12-18T12:34:43;33.70;;;17.40;;
37645;SDS011;23489;49.600;6.138;2022-12-18T12:37:54;35.07;;;16.87;;
37645;SDS011;23489;49.600;6.138;2022-12-18T12:40:31;41.20;;;18.03;;
37645;SDS011;23489;49.600;6.138;2022-12-18T12:43:38;37.90;;;17.50;;
37645;SDS011;23489;49.600;6.138;2022-12-18T12:46:04;32.93;;;16.73;;
37645;SDS011;23489;49.600;6.138;2022-12-18T12:48:46;39.17;;;18.47;;
37645;SDS011;23489;49.600;6.138;2022-12-18T12:51:24;40.40;;;19.37;;
37645;SDS011;23489;49.600;6.138;2022-12-18T12:53:56;35.63;;;17.33;;
37645;SDS011;23489;49.600;6.138;2022-12-18T12:56:24;42.10;;;18.27;;
37645;SDS011;23489;49.600;6.138;2022-12-18T12:59:13;36.63;;;18.23;;
37645;SDS011;23489;49.600;6.138;2022-12-18T13:15:44;37.30;;;19.07;;
37645;SDS011;23489;49.600;6.138;2022-12-18T13:18:22;42.60;;;18.20;;
37645;SDS011;23489;49.600;6.138;2022-12-18T13:25:49;42.13;;;20.37;;
37645;SDS011;23489;49.600;6.138;2022-12-18T13:28:17;36.90;;;18.20;;
37645;SDS011;23489;49.600;6.138;2022-12-18T13:31:05;44.63;;;17.97;;
37645;SDS011;23489;49.600;6.138;2022-12-18T13:36:00;39.53;;;19.83;;
37645;SDS011;23489;49.600;6.138;2022-12-18T13:41:38;39.50;;;17.60;;
37645;SDS011;23489;49.600;6.138;2022-12-18T13:46:44;36.03;;;18.50;;
37645;SDS011;23489;49.600;6.138;2022-12-18T13:51:40;42.40;;;19.03;;
37645;SDS011;23489;49.600;6.138;2022-12-18T13:56:59;41.20;;;19.57;;
37645;SDS011;23489;49.600;6.138;2022-12-18T13:59:32;42.70;;;19.53;;
37645;SDS011;23489;49.600;6.138;2022-12-18T14:02:01;42.67;;;20.10;;
37645;SDS011;23489;49.600;6.138;2022-12-18T14:04:38;40.40;;;18.87;;
37645;SDS011;23489;49.600;6.138;2022-12-18T14:07:04;44.10;;;19.93;;
37645;SDS011;23489;49.600;6.138;2022-12-18T14:09:33;40.80;;;19.60;;
37645;SDS011;23489;49.600;6.138;2022-12-18T14:12:02;44.43;;;19.40;;
37645;SDS011;23489;49.600;6.138;2022-12-18T14:14:47;43.27;;;19.83;;
37645;SDS011;23489;49.600;6.138;2022-12-18T14:17:15;45.17;;;21.17;;
37645;SDS011;23489;49.600;6.138;2022-12-18T14:19:44;37.10;;;18.67;;
37645;SDS011;23489;49.600;6.138;2022-12-18T14:22:20;49.60;;;20.97;;
37645;SDS011;23489;49.600;6.138;2022-12-18T14:27:37;41.93;;;19.77;;
37645;SDS011;23489;49.600;6.138;2022-12-18T14:30:26;40.37;;;19.47;;
37645;SDS011;23489;49.600;6.138;2022-12-18T14:35:27;40.07;;;20.47;;
37645;SDS011;23489;49.600;6.138;2022-12-18T14:37:53;41.17;;;20.07;;
37645;SDS011;23489;49.600;6.138;2022-12-18T14:40:18;43.63;;;20.93;;
37645;SDS011;23489;49.600;6.138;2022-12-18T14:42:44;38.37;;;19.47;;
37645;SDS011;23489;49.600;6.138;2022-12-18T14:48:15;43.20;;;20.50;;
37645;SDS011;23489;49.600;6.138;2022-12-18T14:51:02;41.23;;;19.73;;
37645;SDS011;23489;49.600;6.138;2022-12-18T14:53:35;41.77;;;20.10;;
37645;SDS011;23489;49.600;6.138;2022-12-18T14:56:12;42.10;;;20.63;;
37645;SDS011;23489;49.600;6.138;2022-12-18T14:58:44;45.50;;;19.63;;
37645;SDS011;23489;49.600;6.138;2022-12-18T15:04:03;49.07;;;21.37;;
37645;SDS011;23489;49.600;6.138;2022-12-18T15:06:46;39.37;;;19.13;;
37645;SDS011;23489;49.600;6.138;2022-12-18T15:10:00;39.80;;;19.57;;
37645;SDS011;23489;49.600;6.138;2022-12-18T15:12:16;39.13;;;18.50;;
37645;SDS011;23489;49.600;6.138;2022-12-18T15:14:51;40.37;;;19.13;;
37645;SDS011;23489;49.600;6.138;2022-12-18T15:17:17;42.80;;;20.90;;
37645;SDS011;23489;49.600;6.138;2022-12-18T15:19:46;44.80;;;19.87;;
37645;SDS011;23489;49.600;6.138;2022-12-18T15:24:50;44.27;;;20.67;;
37645;SDS011;23489;49.600;6.138;2022-12-18T15:27:48;40.20;;;18.77;;
37645;SDS011;23489;49.600;6.138;2022-12-18T15:32:40;44.50;;;20.47;;
37645;SDS011;23489;49.600;6.138;2022-12-18T15:35:17;47.47;;;20.90;;
37645;SDS011;23489;49.600;6.138;2022-12-18T15:37:48;40.73;;;18.80;;
37645;SDS011;23489;49.600;6.138;2022-12-18T15:40:16;49.23;;;20.10;;
37645;SDS011;23489;49.600;6.138;2022-12-18T15:42:46;44.87;;;19.63;;
37645;SDS011;23489;49.600;6.138;2022-12-18T15:45:31;42.03;;;20.33;;
37645;SDS011;23489;49.600;6.138;2022-12-18T15:47:57;48.63;;;20.87;;
37645;SDS011;23489;49.600;6.138;2022-12-18T15:50:24;43.20;;;20.97;;
37645;SDS011;23489;49.600;6.138;2022-12-18T15:52:50;40.57;;;20.97;;
37645;SDS011;23489;49.600;6.138;2022-12-18T15:55:21;45.07;;;20.63;;
37645;SDS011;23489;49.600;6.138;2022-12-18T15:58:07;43.97;;;20.50;;
37645;SDS011;23489;49.600;6.138;2022-12-18T16:00:35;44.43;;;19.93;;
37645;SDS011;23489;49.600;6.138;2022-12-18T16:03:03;41.73;;;20.80;;
37645;SDS011;23489;49.600;6.138;2022-12-18T16:05:29;50.57;;;21.63;;
37645;SDS011;23489;49.600;6.138;2022-12-18T16:07:55;44.13;;;21.83;;
37645;SDS011;23489;49.600;6.138;2022-12-18T16:10:21;40.37;;;20.27;;
37645;SDS011;23489;49.600;6.138;2022-12-18T16:12:48;45.87;;;21.23;;
37645;SDS011;23489;49.600;6.138;2022-12-18T16:15:14;45.60;;;22.90;;
37645;SDS011;23489;49.600;6.138;2022-12-18T16:17:41;49.63;;;21.63;;
37645;SDS011;23489;49.600;6.138;2022-12-18T16:20:18;49.23;;;22.13;;
37645;SDS011;23489;49.600;6.138;2022-12-18T16:22:45;43.40;;;21.27;;
37645;SDS011;23489;49.600;6.138;2022-12-18T16:25:22;48.57;;;20.73;;
37645;SDS011;23489;49.600;6.138;2022-12-18T16:27:50;42.90;;;20.93;;
37645;SDS011;23489;49.600;6.138;2022-12-18T16:30:21;48.77;;;23.03;;
37645;SDS011;23489;49.600;6.138;2022-12-18T16:32:48;47.77;;;21.93;;
37645;SDS011;23489;49.600;6.138;2022-12-18T16:35:15;42.00;;;20.87;;
37645;SDS011;23489;49.600;6.138;2022-12-18T16:37:41;47.97;;;21.50;;
37645;SDS011;23489;49.600;6.138;2022-12-18T16:40:08;45.37;;;21.57;;
37645;SDS011;23489;49.600;6.138;2022-12-18T16:42:36;49.07;;;22.63;;
37645;SDS011;23489;49.600;6.138;2022-12-18T16:45:03;42.03;;;21.07;;